Time;durP1;ratioP1;P1;durP2;ratioP2;P2;SDS_P1;SDS_P2;PMS_P1;PMS_P2;Temp;Humidity;BMP_temperature;BMP_pressure;BME280_temperature;BME280_humidity;BME280_pressure;Samples;Min_cycle;Max_cycle;Signal;HPM_P1;HPM_P2
2022/05/23 00:00:19;;;;;;;0.73;0.73;;;16.10;1.40;;;17.41;100.00;94744.45;650965;216;31474;-74
2022/05/23 00:03:04;;;;;;;0.70;0.57;;;16.10;1.40;;;17.35;100.00;94735.64;650559;216;31603;-75
2022/05/23 00:05:45;;;;;;;1.00;0.80;;;16.10;1.40;;;17.30;100.00;94733.17;650537;216;31786;-74
2022/05/23 00:08:28;;;;;;;0.93;0.70;;;16.00;1.40;;;17.36;100.00;94728.53;648647;216;31881;-74
2022/05/23 00:11:12;;;;;;;0.93;0.77;;;16.00;1.40;;;17.36;100.00;94723.72;622740;226;31830;-75
2022/05/23 00:13:53;;;;;;;1.73;0.80;;;15.90;1.40;;;17.35;100.00;94722.58;647670;212;32087;-75
2022/05/23 00:16:38;;;;;;;0.60;0.60;;;15.80;1.40;;;17.34;100.00;94723.32;646375;216;31481;-75
2022/05/23 00:19:20;;;;;;;0.75;0.75;;;15.80;1.40;;;17.29;100.00;94725.13;648664;216;31521;-75
2022/05/23 00:22:01;;;;;;;2.35;1.00;;;15.80;1.40;;;17.20;100.00;94727.32;645846;216;31555;-74
2022/05/23 00:24:45;;;;;;;0.62;0.60;;;15.80;1.40;;;17.13;100.00;94726.17;646940;216;31537;-75
2022/05/23 00:27:25;;;;;;;1.10;0.80;;;15.80;1.40;;;17.23;100.00;94726.03;648091;212;31639;-75
2022/05/23 00:30:08;;;;;;;1.70;0.90;;;15.70;1.40;;;17.12;100.00;94724.94;618746;226;32265;-75
2022/05/23 00:35:51;;;;;;;1.40;0.80;;;15.40;1.40;;;16.90;100.00;94721.21;650090;212;31522;-74
2022/05/23 00:38:33;;;;;;;0.80;0.62;;;15.30;1.40;;;16.96;100.00;94716.36;649869;216;31468;-74
2022/05/23 00:43:52;;;;;;;2.30;0.70;;;15.40;1.40;;;17.00;100.00;94721.89;646547;212;31472;-74
2022/05/23 00:46:34;;;;;;;1.10;0.52;;;15.40;1.40;;;17.07;100.00;94723.25;649664;216;31644;-74
2022/05/23 00:49:20;;;;;;;1.33;0.80;;;15.50;1.40;;;17.09;100.00;94722.59;623491;222;32145;-73
2022/05/23 00:52:03;;;;;;;1.00;0.90;;;15.60;1.40;;;17.06;100.00;94722.31;646002;216;31539;-74
2022/05/23 00:54:44;;;;;;;0.90;0.80;;;15.50;1.40;;;17.03;100.00;94723.31;648906;216;31513;-74
2022/05/23 00:57:28;;;;;;;1.10;1.00;;;15.50;1.40;;;17.00;100.00;94728.09;651715;216;31562;-74
2022/05/23 01:00:10;;;;;;;0.85;0.80;;;15.50;1.40;;;17.05;100.00;94723.80;646360;216;31496;-75
2022/05/23 01:02:52;;;;;;;2.00;0.80;;;15.50;1.40;;;16.97;100.00;94726.50;646202;216;32062;-74
2022/05/23 01:05:37;;;;;;;0.90;0.60;;;15.50;1.40;;;16.95;100.00;94723.44;650499;216;31517;-75
2022/05/23 01:08:19;;;;;;;1.20;0.90;;;15.50;1.40;;;16.97;100.00;94722.03;647047;212;31472;-75
2022/05/23 01:11:01;;;;;;;0.80;0.60;;;15.40;1.40;;;16.95;100.00;94717.60;644478;217;31961;-75
2022/05/23 01:13:42;;;;;;;1.30;0.90;;;15.40;1.40;;;16.94;100.00;94713.63;619461;222;31825;-76
2022/05/23 01:16:24;;;;;;;1.30;0.80;;;15.40;1.40;;;17.06;100.00;94710.31;646930;214;31502;-76
2022/05/23 01:19:09;;;;;;;0.80;0.70;;;15.50;1.40;;;16.92;100.00;94703.73;616895;226;32523;-75
2022/05/23 01:21:57;;;;;;;0.77;0.77;;;15.30;1.40;;;16.69;100.00;94700.45;617818;222;31947;-75
2022/05/23 01:27:13;;;;;;;0.80;0.60;;;15.20;1.40;;;16.71;100.00;94696.83;647353;216;31468;-75
2022/05/23 01:29:56;;;;;;;1.20;0.55;;;15.20;1.40;;;16.72;100.00;94690.30;644868;216;31555;-75
2022/05/23 01:32:38;;;;;;;0.90;0.70;;;15.30;1.40;;;16.76;100.00;94686.94;648649;216;31513;-75
2022/05/23 01:35:51;;;;;;;1.20;0.80;;;15.40;1.40;;;16.82;100.00;94683.02;649779;216;42173;-75
2022/05/23 01:38:33;;;;;;;1.20;0.85;;;15.50;1.40;;;16.89;100.00;94681.50;650071;216;31881;-75
2022/05/23 01:41:17;;;;;;;0.70;0.60;;;15.50;1.40;;;16.96;100.00;94667.20;652423;216;33085;-75
2022/05/23 01:43:59;;;;;;;0.80;0.60;;;15.60;1.40;;;16.97;100.00;94669.90;647464;212;31589;-75
2022/05/23 01:46:41;;;;;;;1.00;0.90;;;15.50;1.40;;;16.98;100.00;94668.91;646055;216;31489;-75
2022/05/23 01:49:25;;;;;;;1.05;0.80;;;15.50;1.40;;;17.04;100.00;94669.53;651941;216;31539;-75
2022/05/23 01:52:07;;;;;;;0.95;0.77;;;15.60;1.40;;;17.08;100.00;94671.72;649538;216;31575;-75
2022/05/23 01:54:52;;;;;;;1.10;1.00;;;15.50;1.40;;;17.02;100.00;94682.36;646535;216;31543;-74
2022/05/23 01:57:34;;;;;;;1.20;0.60;;;15.50;1.40;;;16.84;100.00;94683.16;645652;212;31550;-76
2022/05/23 02:03:03;;;;;;;1.50;0.90;;;15.10;1.40;;;16.62;100.00;94690.19;649462;212;31675;-75
2022/05/23 02:05:45;;;;;;;0.90;0.70;;;15.10;1.40;;;16.52;100.00;94678.78;647290;216;31541;-74
2022/05/23 02:08:26;;;;;;;1.17;1.08;;;15.10;1.40;;;16.44;100.00;94672.45;644349;216;31787;-74
2022/05/23 02:11:08;;;;;;;0.80;0.68;;;15.10;1.40;;;16.63;100.00;94695.84;649651;212;31581;-76
2022/05/23 02:13:53;;;;;;;0.88;0.82;;;15.30;1.40;;;16.49;100.00;94689.67;649983;216;31487;-74
2022/05/23 02:16:35;;;;;;;0.90;0.90;;;15.20;1.40;;;16.40;100.00;94676.32;645824;212;31732;-75
2022/05/23 02:19:19;;;;;;;0.60;0.43;;;15.20;1.40;;;16.49;100.00;94686.27;647130;212;31479;-74
2022/05/23 02:22:01;;;;;;;0.75;0.70;;;15.30;1.40;;;16.41;100.00;94676.28;652011;216;32077;-75
2022/05/23 02:24:43;;;;;;;0.77;0.65;;;15.10;1.40;;;16.29;100.00;94652.57;647398;216;31592;-75
2022/05/23 02:27:27;;;;;;;0.98;0.98;;;15.10;1.40;;;16.44;100.00;94652.75;651490;216;31496;-75
2022/05/23 02:30:09;;;;;;;1.10;0.90;;;15.20;1.40;;;16.57;100.00;94671.03;647948;216;31470;-75
2022/05/23 02:32:54;;;;;;;1.23;0.88;;;15.30;1.40;;;16.53;100.00;94668.77;642748;215;31483;-75
2022/05/23 02:35:51;;;;;;;0.80;0.80;;;15.20;1.40;;;16.29;100.00;94652.48;650154;216;31515;-74
2022/05/23 02:38:33;;;;;;;1.10;0.90;;;15.00;1.40;;;16.24;100.00;94639.33;646596;216;31507;-75
2022/05/23 02:41:14;;;;;;;2.30;0.80;;;14.90;1.40;;;16.49;100.00;94641.77;647673;216;31493;-75
2022/05/23 02:43:56;;;;;;;1.50;0.80;;;14.90;1.40;;;16.53;100.00;94633.25;652112;216;31501;-75
2022/05/23 02:46:38;;;;;;;1.87;0.70;;;15.00;1.40;;;16.35;100.00;94632.56;650381;212;31532;-75
2022/05/23 02:49:20;;;;;;;1.08;0.80;;;14.90;1.40;;;16.44;100.00;94632.72;644355;216;31646;-75
2022/05/23 02:52:01;;;;;;;1.00;0.80;;;14.90;1.40;;;16.39;100.00;94628.92;648617;216;31480;-75
2022/05/23 02:54:43;;;;;;;1.30;0.70;;;14.90;1.40;;;16.43;100.00;94618.77;644478;212;31469;-74
2022/05/23 02:57:28;;;;;;;1.10;1.00;;;15.00;1.40;;;16.48;100.00;94619.16;655181;216;31663;-74
2022/05/23 03:00:10;;;;;;;1.00;0.70;;;15.10;1.40;;;16.64;100.00;94619.84;652866;216;31598;-75
2022/05/23 03:05:42;;;;;;;1.30;0.95;;;15.20;1.40;;;16.68;100.00;94620.31;650763;216;31521;-75
2022/05/23 03:08:24;;;;;;;1.00;0.80;;;15.20;1.40;;;16.68;100.00;94609.88;616833;222;32041;-74
2022/05/23 03:11:05;;;;;;;0.60;0.60;;;15.20;1.40;;;16.61;100.00;94612.92;649285;216;31579;-74
2022/05/23 03:13:47;;;;;;;2.97;0.90;;;15.10;1.40;;;16.69;100.00;94611.64;617812;226;31813;-75
2022/05/23 03:16:29;;;;;;;0.90;0.60;;;15.10;1.40;;;16.45;100.00;94618.84;648105;212;31473;-75
2022/05/23 03:19:11;;;;;;;0.60;0.60;;;15.10;1.40;;;16.41;100.00;94621.00;649537;216;31485;-74
2022/05/23 03:30:07;;;;;;;1.30;1.15;;;15.10;1.40;;;16.58;100.00;94606.20;621371;226;31835;-74
2022/05/23 03:32:50;;;;;;;2.00;0.70;;;15.10;1.40;;;16.60;100.00;94605.66;646353;216;31534;-74
2022/05/23 03:35:51;;;;;;;0.90;0.70;;;15.10;1.40;;;16.55;100.00;94596.66;647658;216;31554;-74
2022/05/23 03:38:33;;;;;;;0.62;0.60;;;15.10;1.40;;;16.58;100.00;94598.28;648978;212;31490;-74
2022/05/23 03:41:14;;;;;;;1.10;1.00;;;15.10;1.40;;;16.55;100.00;94592.77;653045;216;31631;-75
2022/05/23 03:43:59;;;;;;;1.27;0.70;;;15.10;1.40;;;16.49;100.00;94590.83;645363;216;31495;-75
2022/05/23 03:46:42;;;;;;;1.80;0.80;;;15.10;1.40;;;16.36;100.00;94582.74;647622;216;31499;-75
2022/05/23 03:49:22;;;;;;;0.60;0.60;;;15.20;1.40;;;16.23;100.00;94582.80;651983;216;32100;-74
2022/05/23 03:52:04;;;;;;;2.45;0.70;;;15.10;1.40;;;16.15;100.00;94579.52;648673;212;32063;-75
2022/05/23 03:54:49;;;;;;;0.70;0.60;;;15.20;1.40;;;16.30;100.00;94570.83;649791;216;31469;-75
2022/05/23 03:57:31;;;;;;;0.90;0.70;;;15.10;1.40;;;16.35;100.00;94569.66;647797;212;42174;-75
2022/05/23 04:00:13;;;;;;;1.60;1.10;;;15.10;1.40;;;16.28;100.00;94561.06;646775;216;31503;-75
2022/05/23 04:02:55;;;;;;;1.73;0.93;;;15.10;1.40;;;16.10;100.00;94563.12;646035;216;32067;-75
2022/05/23 04:05:41;;;;;;;0.60;0.60;;;15.10;1.40;;;16.10;100.00;94564.03;647495;216;31559;-75
2022/05/23 04:08:22;;;;;;;0.95;0.85;;;15.10;1.40;;;16.30;100.00;94563.56;648306;216;31674;-76
2022/05/23 04:11:04;;;;;;;0.73;0.73;;;15.10;1.40;;;16.38;100.00;94566.67;652903;216;31465;-76
2022/05/23 04:13:49;;;;;;;0.80;0.80;;;15.10;1.40;;;16.31;100.00;94564.99;646766;216;31516;-74
2022/05/23 04:16:30;;;;;;;1.00;0.90;;;15.10;1.40;;;16.33;100.00;94559.81;647502;216;31479;-75
2022/05/23 04:19:12;;;;;;;0.80;0.70;;;15.20;1.40;;;16.48;100.00;94564.36;645894;216;31475;-74
2022/05/23 04:21:54;;;;;;;1.20;0.70;;;15.30;1.40;;;16.56;100.00;94568.00;621554;222;31853;-75
2022/05/23 04:24:35;;;;;;;1.10;0.90;;;15.30;1.40;;;16.62;100.00;94573.14;623065;222;31861;-75
2022/05/23 04:27:17;;;;;;;1.50;1.10;;;15.40;1.40;;;16.84;100.00;94570.80;646077;216;31517;-74
2022/05/23 04:30:02;;;;;;;0.80;0.80;;;15.40;1.40;;;16.83;100.00;94566.45;649193;216;31670;-74
2022/05/23 04:35:55;;;;;;;0.70;0.60;;;15.30;1.40;;;16.74;100.00;94560.52;651326;216;42695;-74
2022/05/23 04:38:37;;;;;;;0.60;0.60;;;15.40;1.40;;;16.82;100.00;94557.58;644977;212;42237;-74
2022/05/23 04:41:19;;;;;;;0.60;0.50;;;15.50;1.40;;;17.06;100.00;94560.31;647899;216;31466;-75
2022/05/23 04:44:01;;;;;;;1.43;0.83;;;15.60;1.40;;;17.27;100.00;94555.32;647101;216;31568;-75
2022/05/23 04:52:22;;;;;;;2.10;1.08;;;15.70;1.40;;;16.81;100.00;94540.43;647050;216;31544;-74
2022/05/23 04:55:02;;;;;;;1.20;0.80;;;15.60;1.40;;;16.82;100.00;94532.20;650349;212;41890;-74
2022/05/23 04:57:43;;;;;;;2.40;0.90;;;15.70;1.40;;;17.11;100.00;94537.30;651193;216;31814;-75
2022/05/23 05:00:25;;;;;;;0.90;0.80;;;15.70;1.40;;;17.16;100.00;94529.32;647036;212;31506;-74
2022/05/23 05:03:07;;;;;;;1.10;0.80;;;15.80;1.40;;;17.05;100.00;94524.50;651710;212;31509;-75
2022/05/23 05:05:48;;;;;;;0.90;0.60;;;15.80;1.40;;;17.03;100.00;94519.09;647993;216;31504;-74
2022/05/23 05:08:33;;;;;;;0.90;0.90;;;15.80;1.40;;;17.21;100.00;94516.33;648988;216;31750;-74
2022/05/23 05:11:15;;;;;;;1.20;1.02;;;15.90;1.40;;;17.25;100.00;94509.64;648481;216;42101;-74
2022/05/23 05:13:57;;;;;;;1.67;1.30;;;15.90;1.40;;;17.27;100.00;94514.92;651455;216;31527;-74
2022/05/23 05:16:41;;;;;;;1.05;0.95;;;16.00;1.40;;;17.37;100.00;94512.52;647328;216;31497;-74
2022/05/23 05:19:23;;;;;;;1.10;1.00;;;16.10;1.40;;;17.46;100.00;94508.56;645593;216;31539;-76
2022/05/23 05:22:05;;;;;;;0.98;0.57;;;16.10;1.40;;;17.62;100.00;94505.75;648047;212;31489;-74
2022/05/23 05:24:46;;;;;;;0.70;0.70;;;16.20;1.40;;;17.59;100.00;94503.36;645346;212;32301;-74
2022/05/23 05:27:29;;;;;;;0.80;0.80;;;16.30;1.40;;;17.96;100.00;94505.77;646696;216;31696;-74
2022/05/23 05:30:10;;;;;;;2.30;0.90;;;16.50;1.40;;;18.07;100.00;94510.73;647700;216;31498;-74
2022/05/23 05:35:54;;;;;;;2.03;1.08;;;16.60;1.40;;;17.98;100.00;94507.97;646452;216;31559;-74
2022/05/23 05:38:56;;;;;;;1.23;1.12;;;16.70;1.40;;;18.04;100.00;94512.17;650118;216;31588;-74
2022/05/23 05:41:43;;;;;;;1.03;1.00;;;16.80;1.40;;;18.58;100.00;94510.27;644975;216;31597;-74
2022/05/23 05:44:24;;;;;;;1.37;0.95;;;17.10;1.40;;;19.13;100.00;94516.38;617205;222;32466;-73
2022/05/23 05:47:07;;;;;;;1.10;0.80;;;17.40;1.40;;;19.23;100.00;94519.90;645408;212;34909;-75
2022/05/23 05:49:48;;;;;;;1.80;0.95;;;17.50;1.40;;;19.89;100.00;94519.19;646000;216;31537;-74
2022/05/23 05:52:29;;;;;;;1.27;0.73;;;17.80;1.40;;;19.40;100.00;94520.91;647861;216;32100;-74
2022/05/23 05:55:12;;;;;;;1.10;0.90;;;17.70;1.40;;;19.26;100.00;94525.71;645752;216;31493;-74
2022/05/23 05:57:56;;;;;;;0.80;0.70;;;17.70;1.40;;;19.59;100.00;94519.44;648257;216;31523;-74
2022/05/23 06:00:38;;;;;;;1.10;1.00;;;17.80;1.40;;;19.66;100.00;94520.39;651022;216;31511;-74
2022/05/23 06:03:22;;;;;;;1.02;1.00;;;17.80;1.40;;;19.31;100.00;94531.59;651201;216;42855;-74
2022/05/23 06:11:42;;;;;;;0.90;0.90;;;18.20;1.40;;;20.77;100.00;94535.70;648570;216;31669;-75
2022/05/23 06:14:23;;;;;;;2.47;1.40;;;18.30;1.40;;;19.84;100.00;94544.59;652230;216;31953;-75
2022/05/23 06:17:07;;;;;;;0.90;0.80;;;18.10;1.40;;;20.27;100.00;94538.17;621290;226;31880;-75
2022/05/23 06:19:48;;;;;;;1.20;0.80;;;18.30;1.40;;;20.55;100.00;94541.59;645254;216;32158;-74
2022/05/23 06:22:30;;;;;;;2.70;0.90;;;18.60;1.40;;;20.54;100.00;94543.86;645189;212;31531;-75
2022/05/23 06:25:13;;;;;;;1.40;1.12;;;18.70;1.40;;;20.56;100.00;94552.77;642842;217;31590;-75
2022/05/23 06:27:59;;;;;;;1.70;0.88;;;18.70;1.40;;;21.00;100.00;94554.57;615568;226;32013;-77
2022/05/23 06:30:47;;;;;;;1.10;0.80;;;18.70;1.40;;;21.00;100.00;94567.47;649707;216;32152;-75
2022/05/23 06:35:51;;;;;;;1.20;1.00;;;18.80;1.40;;;20.78;100.00;94572.20;643973;216;31823;-73
2022/05/23 06:38:34;;;;;;;1.10;0.82;;;18.60;1.40;;;20.80;100.00;94572.20;628308;217;31650;-74
2022/05/23 06:41:15;;;;;;;2.53;0.90;;;18.10;1.40;;;20.62;100.00;94578.16;623631;226;31852;-74
2022/05/23 06:43:57;;;;;;;1.40;1.00;;;17.80;1.40;;;20.15;100.00;94576.28;649514;212;31536;-74
2022/05/23 06:46:38;;;;;;;1.40;1.20;;;17.90;1.40;;;19.72;100.00;94584.30;646564;216;31557;-74
2022/05/23 06:49:20;;;;;;;1.10;0.90;;;17.80;1.40;;;19.36;100.00;94588.66;645021;212;31528;-74
2022/05/23 06:52:02;;;;;;;1.10;0.98;;;17.40;1.40;;;19.39;100.00;94581.77;647635;212;31519;-75
2022/05/23 06:54:44;;;;;;;1.75;1.40;;;16.90;1.40;;;19.41;100.00;94584.38;649140;212;33584;-75
2022/05/23 06:57:25;;;;;;;1.60;1.30;;;17.20;1.40;;;19.24;100.00;94592.94;652296;216;42102;-75
2022/05/23 07:00:09;;;;;;;1.17;0.85;;;17.50;1.40;;;19.06;100.00;94608.89;647273;212;31498;-74
2022/05/23 07:02:50;;;;;;;1.20;1.10;;;17.80;1.40;;;18.78;100.00;94634.43;645249;216;42828;-73
2022/05/23 07:16:34;;;;;;;1.30;1.20;;;18.40;1.40;;;19.29;100.00;94687.03;649143;216;42872;-74
2022/05/23 07:19:17;;;;;;;1.60;1.10;;;18.10;1.40;;;18.90;100.00;94682.28;644118;216;31537;-74
2022/05/23 07:22:00;;;;;;;1.60;1.10;;;17.80;1.40;;;19.08;100.00;94675.06;650853;216;31528;-74
2022/05/23 07:24:41;;;;;;;1.98;1.40;;;17.80;1.40;;;19.25;100.00;94678.15;646437;216;31491;-74
2022/05/23 07:27:30;;;;;;;1.27;0.90;;;17.80;1.40;;;19.03;100.00;94676.56;646138;216;32679;-74
2022/05/23 07:30:12;;;;;;;1.73;1.00;;;17.70;1.40;;;18.89;100.00;94672.81;647336;216;32171;-74
2022/05/23 07:32:54;;;;;;;1.70;1.50;;;17.70;1.40;;;19.10;100.00;94672.19;648679;212;31555;-74
2022/05/23 07:35:56;;;;;;;2.60;1.00;;;17.80;1.40;;;18.96;100.00;94683.69;647017;216;31638;-74
2022/05/23 07:38:41;;;;;;;1.40;1.30;;;17.50;1.40;;;18.89;100.00;94699.44;643861;216;31571;-74
2022/05/23 07:41:23;;;;;;;3.55;1.27;;;17.30;1.40;;;18.28;100.00;94682.73;641385;217;31717;-74
2022/05/23 07:44:05;;;;;;;1.23;1.00;;;17.00;1.40;;;18.39;100.00;94671.86;646037;216;42233;-74
2022/05/23 07:46:47;;;;;;;1.40;1.30;;;17.10;1.40;;;18.54;100.00;94676.53;647438;212;31842;-76
2022/05/23 07:49:31;;;;;;;2.20;1.40;;;17.40;1.40;;;18.94;100.00;94660.63;646386;216;31793;-74
2022/05/23 07:52:13;;;;;;;1.50;1.30;;;18.00;1.40;;;20.04;100.00;94644.34;646486;216;31580;-74
2022/05/23 08:03:16;;;;;;;2.12;0.90;;;18.50;1.40;;;20.67;100.00;94644.85;646574;216;31583;-76
2022/05/23 08:05:56;;;;;;;1.30;1.00;;;18.30;1.40;;;19.87;100.00;94639.00;646240;212;31919;-75
2022/05/23 08:08:38;;;;;;;0.80;0.50;;;18.10;1.40;;;20.08;100.00;94632.50;616289;226;32076;-75
2022/05/23 08:11:19;;;;;;;0.80;0.80;;;18.10;1.40;;;19.67;100.00;94597.80;647744;216;31499;-75
2022/05/23 08:14:01;;;;;;;1.10;1.00;;;17.80;1.40;;;19.33;100.00;94557.99;645523;212;31611;-75
2022/05/23 08:16:43;;;;;;;2.87;1.05;;;17.60;1.40;;;18.63;100.00;94559.20;646660;216;31523;-75
2022/05/23 08:19:25;;;;;;;1.00;0.90;;;17.10;1.40;;;18.48;100.00;94541.58;646505;212;31535;-75
2022/05/23 08:22:09;;;;;;;1.83;1.00;;;17.00;1.40;;;18.03;100.00;94526.38;647463;212;42171;-78
2022/05/23 08:24:56;;;;;;;1.10;1.00;;;17.00;1.40;;;18.15;100.00;94504.86;645912;215;31570;-75
2022/05/23 08:29:06;;;;;;;1.40;0.90;;;17.10;1.40;;;18.02;100.00;94496.23;646252;216;31537;-75
2022/05/23 08:31:48;;;;;;;2.17;1.20;;;17.50;1.40;;;18.41;100.00;94487.05;646013;216;31607;-75
2022/05/23 08:35:51;;;;;;;1.40;1.20;;;18.10;1.40;;;18.99;100.00;94503.83;646534;212;31559;-75
2022/05/23 08:38:33;;;;;;;1.58;0.90;;;18.20;1.40;;;19.19;100.00;94517.73;645644;212;31514;-75
2022/05/23 08:44:10;;;;;;;1.10;0.90;;;17.90;1.40;;;19.01;100.00;94519.16;645898;216;31486;-74
2022/05/23 08:47:15;;;;;;;0.90;0.70;;;18.20;1.40;;;19.56;100.00;94512.33;646164;216;42134;-75
2022/05/23 08:50:15;;;;;;;1.95;0.95;;;18.60;1.40;;;20.19;100.00;94509.73;647299;216;42125;-76
2022/05/23 08:55:34;;;;;;;1.27;1.10;;;19.70;1.40;;;20.04;100.00;94505.23;645977;216;31734;-75
2022/05/23 08:58:18;;;;;;;4.00;1.70;;;19.00;1.40;;;19.77;100.00;94500.70;645563;216;31600;-74
2022/05/23 09:01:06;;;;;;;3.20;1.20;;;19.00;1.40;;;20.35;100.00;94490.42;645835;212;31589;-74
2022/05/23 09:06:30;;;;;;;1.95;1.30;;;20.60;1.40;;;21.33;100.00;94482.53;647186;216;33579;-75
2022/05/23 09:09:12;;;;;;;3.22;0.98;;;20.70;1.40;;;21.78;100.00;94472.52;641688;216;32310;-75
2022/05/23 09:11:54;;;;;;;2.00;1.17;;;21.10;1.40;;;22.38;100.00;94468.23;646010;216;34869;-75
2022/05/23 09:14:35;;;;;;;1.60;1.40;;;21.50;1.40;;;22.25;100.00;94458.29;646619;212;31529;-75
2022/05/23 09:20:03;;;;;;;3.67;1.40;;;22.50;1.40;;;23.80;90.40;94462.26;647133;216;32096;-75
2022/05/23 09:22:51;;;;;;;2.20;1.40;;;24.00;1.40;;;24.42;87.15;94456.36;648273;216;31571;-75
2022/05/23 09:25:34;;;;;;;1.40;1.20;;;24.80;1.40;;;24.24;83.26;94448.75;646034;216;31517;-75
2022/05/23 09:28:33;;;;;;;5.00;1.20;;;23.40;1.40;;;23.55;87.23;94445.03;647648;216;42851;-75
2022/05/23 09:35:52;;;;;;;1.80;1.37;;;24.60;1.40;;;24.06;82.54;94429.09;645860;212;31545;-74
2022/05/23 09:38:34;;;;;;;1.52;1.30;;;23.20;1.40;;;24.76;82.22;94435.75;647003;216;31799;-75
2022/05/23 09:50:00;;;;;;;1.10;1.00;;;23.70;1.40;;;24.38;78.51;94418.77;646279;212;31787;-75
2022/05/23 09:52:50;;;;;;;1.42;1.23;;;23.70;1.40;;;24.89;75.00;94402.67;619461;223;31863;-75
2022/05/23 09:55:33;;;;;;;1.12;1.00;;;24.10;1.40;;;23.74;78.71;94409.23;646902;216;42154;-75
2022/05/23 09:58:14;;;;;;;1.95;1.30;;;22.80;1.40;;;24.08;77.80;94408.81;647000;212;32116;-75
2022/05/23 10:00:56;;;;;;;4.28;1.10;;;23.40;1.40;;;24.37;77.39;94397.09;646289;215;42714;-73
2022/05/23 10:03:37;;;;;;;3.70;1.58;;;23.70;1.40;;;23.95;78.29;94391.16;646262;216;42727;-75
2022/05/23 10:06:20;;;;;;;0.90;0.80;;;23.40;1.40;;;25.83;76.46;94376.13;618883;226;31971;-75
2022/05/23 10:09:01;;;;;;;2.00;1.20;;;25.00;1.40;;;25.81;72.22;94374.92;641471;212;32740;-76
2022/05/23 10:11:43;;;;;;;2.40;1.17;;;25.00;1.40;;;25.03;78.53;94371.85;646723;216;31601;-75
2022/05/23 10:14:24;;;;;;;2.70;1.33;;;24.50;1.40;;;25.26;76.27;94361.53;619657;222;32081;-75
2022/05/23 10:17:06;;;;;;;2.30;1.00;;;24.40;1.40;;;25.37;76.76;94361.69;646650;212;31606;-75
2022/05/23 10:19:47;;;;;;;2.00;1.10;;;24.50;1.40;;;26.03;72.53;94356.73;646178;216;31563;-74
2022/05/23 10:22:29;;;;;;;1.92;1.20;;;25.30;1.40;;;26.76;73.25;94347.27;648168;216;31520;-75
2022/05/23 10:25:14;;;;;;;2.50;2.20;;;25.90;1.40;;;27.71;68.33;94339.63;646611;212;31591;-76
2022/05/23 10:27:57;;;;;;;3.50;1.50;;;26.80;1.40;;;28.02;68.25;94336.15;645961;216;31621;-75
2022/05/23 10:30:39;;;;;;;2.70;1.62;;;27.30;1.40;;;27.08;65.51;94330.00;646752;212;31649;-75
2022/05/23 10:36:14;;;;;;;2.23;1.20;;;26.70;1.40;;;29.11;61.07;94313.19;647275;212;31634;-76
2022/05/23 10:45:31;;;;;;;1.50;1.27;;;25.80;1.40;;;27.36;64.48;94314.23;647765;212;42938;-75
2022/05/23 10:48:34;;;;;;;1.83;1.40;;;25.00;1.40;;;28.51;65.93;94318.55;646585;216;31631;-75
2022/05/23 10:51:26;;;;;;;1.60;1.50;;;27.80;1.40;;;28.43;64.21;94325.04;644968;215;33673;-75
2022/05/23 10:54:17;;;;;;;1.98;1.40;;;26.80;1.40;;;28.71;61.30;94321.53;620423;226;32175;-76
2022/05/23 10:57:21;;;;;;;2.30;1.40;;;27.70;1.40;;;29.54;60.29;94315.32;646321;216;32265;-75
2022/05/23 11:00:07;;;;;;;2.92;1.58;;;28.40;1.40;;;28.21;60.31;94331.95;646067;216;31702;-75
2022/05/23 11:02:57;;;;;;;2.20;1.70;;;26.90;1.40;;;28.66;60.84;94331.05;646715;216;31708;-75
2022/05/23 11:06:02;;;;;;;2.37;1.37;;;27.10;1.40;;;31.12;55.20;94315.98;645632;212;31526;-76
2022/05/23 11:09:06;;;;;;;1.58;1.25;;;28.40;1.40;;;28.59;55.86;94312.34;643509;216;31811;-76
2022/05/23 11:12:14;;;;;;;1.27;1.10;;;26.20;1.40;;;29.52;57.58;94304.35;620581;222;31892;-78
2022/05/23 11:15:12;;;;;;;3.40;1.30;;;28.00;1.40;;;29.50;56.20;94305.14;647160;216;31567;-75
2022/05/23 11:18:04;;;;;;;1.70;1.40;;;27.50;1.40;;;30.53;53.25;94299.20;646640;212;31543;-76
2022/05/23 11:20:45;;;;;;;1.45;1.20;;;28.20;1.40;;;32.06;51.33;94297.29;646501;216;32102;-73
2022/05/23 11:23:32;;;;;;;2.35;1.70;;;29.00;1.40;;;33.50;50.64;94286.98;645480;216;31804;-76
2022/05/23 11:26:25;;;;;;;2.40;1.80;;;29.70;1.40;;;30.00;53.71;94288.95;647413;216;31594;-76
2022/05/23 11:35:54;;;;;;;3.20;1.58;;;29.00;1.40;;;36.22;45.95;94253.41;646845;216;32103;-76
2022/05/23 11:38:35;;;;;;;1.62;1.40;;;32.40;1.40;;;31.90;48.02;94256.52;646907;216;31640;-74
2022/05/23 11:41:29;;;;;;;1.50;1.40;;;30.10;1.40;;;36.43;45.49;94243.73;647131;212;31753;-76
2022/05/23 11:44:36;;;;;;;2.17;1.98;;;31.10;1.40;;;32.78;47.22;94255.59;626500;220;31610;-79
2022/05/23 11:47:25;;;;;;;1.50;1.40;;;29.80;1.40;;;32.57;47.97;94248.25;646477;216;42194;-75
2022/05/23 11:50:26;;;;;;;3.28;1.52;;;29.90;1.40;;;32.57;47.29;94250.61;646292;212;31536;-74
2022/05/23 11:53:11;;;;;;;2.08;1.60;;;29.20;1.40;;;33.41;47.48;94241.33;615797;227;31920;-78
2022/05/23 11:56:00;;;;;;;2.92;1.70;;;29.30;1.40;;;36.61;43.08;94235.44;646595;216;31562;-77
2022/05/23 11:58:44;;;;;;;3.70;1.70;;;30.90;1.40;;;34.43;45.34;94229.20;646340;212;32050;-77
2022/05/23 12:01:29;;;;;;;2.30;1.67;;;29.80;1.40;;;35.47;43.32;94225.30;646827;216;31506;-74
2022/05/23 12:06:50;;;;;;;2.25;1.77;;;30.60;1.40;;;33.43;42.85;94213.34;619916;222;43056;-78
2022/05/23 12:09:38;;;;;;;2.60;1.60;;;28.70;1.40;;;30.89;49.91;94222.42;645106;216;31635;-75
2022/05/23 12:15:04;;;;;;;2.00;1.67;;;29.20;1.40;;;33.77;45.27;94207.03;646696;212;42220;-76
2022/05/23 12:17:46;;;;;;;2.90;1.62;;;28.90;1.40;;;34.27;45.29;94202.84;647614;212;42684;-76
2022/05/23 12:20:31;;;;;;;3.00;1.60;;;29.90;1.40;;;36.10;42.33;94196.71;647244;216;31998;-77
2022/05/23 12:23:28;;;;;;;6.30;1.80;;;30.80;1.40;;;36.18;42.13;94200.07;647592;216;31534;-74
2022/05/23 12:26:26;;;;;;;2.42;1.50;;;30.90;1.40;;;37.24;39.60;94194.69;646826;212;31554;-73
2022/05/23 12:29:30;;;;;;;3.58;2.00;;;30.50;1.40;;;37.72;40.41;94181.05;646803;212;32065;-73
2022/05/23 12:32:22;;;;;;;4.20;1.80;;;31.10;1.40;;;36.26;37.63;94184.71;647480;216;31567;-73
2022/05/23 12:35:55;;;;;;;8.15;2.35;;;29.20;1.40;;;36.44;39.95;94177.65;646712;216;31642;-73
2022/05/23 12:38:43;;;;;;;2.95;1.60;;;30.10;1.40;;;35.86;41.24;94178.56;648483;216;31774;-73
2022/05/23 12:41:53;;;;;;;2.65;1.80;;;30.10;1.40;;;38.88;38.57;94171.09;646289;216;31721;-72
2022/05/23 12:45:09;;;;;;;3.50;2.10;;;32.30;1.40;;;39.48;36.17;94169.70;646792;216;31519;-73
2022/05/23 12:48:02;;;;;;;1.83;1.45;;;33.00;1.40;;;40.84;37.09;94171.31;646920;212;31738;-73
2022/05/23 12:53:25;;;;;;;2.00;1.67;;;32.80;1.40;;;40.48;35.00;94175.42;647298;216;31594;-73
2022/05/23 12:56:32;;;;;;;1.80;1.70;;;32.20;1.40;;;41.31;33.72;94177.89;646642;212;31534;-73
2022/05/23 13:02:02;;;;;;;2.20;2.00;;;32.80;1.40;;;41.85;33.43;94166.02;646270;212;31590;-72
2022/05/23 13:04:58;;;;;;;2.80;1.90;;;33.90;1.40;;;42.93;32.34;94158.41;619446;226;43650;-72
2022/05/23 13:07:48;;;;;;;1.83;1.60;;;33.60;1.40;;;40.07;33.08;94158.17;644351;212;31732;-72
2022/05/23 13:10:33;;;;;;;2.27;1.53;;;32.40;1.40;;;38.91;34.88;94143.07;646546;216;31606;-74
2022/05/23 13:13:34;;;;;;;2.58;1.70;;;31.80;1.40;;;39.96;34.28;94133.30;619947;222;32476;-72
2022/05/23 13:16:24;;;;;;;2.62;1.80;;;32.80;1.40;;;40.22;32.65;94137.13;646425;212;31621;-73
2022/05/23 13:22:06;;;;;;;3.22;1.60;;;31.70;1.40;;;38.11;35.56;94134.28;647066;212;32126;-74
2022/05/23 13:24:50;;;;;;;7.40;2.50;;;31.40;1.40;;;40.11;34.54;94131.84;647534;216;31542;-73
2022/05/23 13:27:33;;;;;;;6.93;3.40;;;32.30;1.40;;;37.62;35.52;94139.22;645484;216;31550;-73
2022/05/23 13:30:20;;;;;;;3.30;2.30;;;31.60;1.40;;;39.09;33.23;94143.97;647633;216;32658;-73
2022/05/23 13:35:56;;;;;;;2.53;1.87;;;32.90;1.40;;;39.59;34.67;94147.55;647514;212;31576;-72